Time;durP1;ratioP1;P1;durP2;ratioP2;P2;SDS_P1;SDS_P2;PMS_P1;PMS_P2;Temp;Humidity;BMP_temperature;BMP_pressure;BME280_temperature;BME280_humidity;BME280_pressure;Samples;Min_cycle;Max_cycle;Signal;HPM_P1;HPM_P2
2022/11/29 00:02:09;;;;;;;12.50;7.93;;;;;;;4.31;100.00;94819.81;5035599;28;20207;-81
2022/11/29 00:04:37;;;;;;;13.33;7.60;;;;;;;4.30;100.00;94825.91;5032932;28;20261;-79
2022/11/29 00:07:04;;;;;;;11.10;7.13;;;;;;;4.20;100.00;94824.59;5037425;28;20198;-79
2022/11/29 00:09:32;;;;;;;13.30;7.10;;;;;;;4.17;100.00;94823.16;5038585;28;20207;-79
2022/11/29 00:12:13;;;;;;;12.90;7.37;;;;;;;4.19;100.00;94822.97;5034243;28;20217;-79
2022/11/29 00:14:41;;;;;;;11.33;7.73;;;;;;;4.09;100.00;94827.56;5034614;28;20217;-77
2022/11/29 00:17:08;;;;;;;12.63;7.23;;;;;;;4.07;100.00;94819.25;5038176;28;20613;-78
2022/11/29 00:19:36;;;;;;;12.73;7.10;;;;;;;4.00;100.00;94832.00;5034538;28;20943;-77
2022/11/29 00:22:04;;;;;;;11.20;6.97;;;;;;;4.02;100.00;94827.47;5030900;28;20202;-79
2022/11/29 00:24:33;;;;;;;12.03;7.03;;;;;;;4.04;100.00;94833.22;5034649;28;20205;-80
2022/11/29 00:27:01;;;;;;;11.43;7.63;;;;;;;4.09;100.00;94825.00;5041037;28;20194;-80
2022/11/29 00:29:36;;;;;;;13.23;8.10;;;;;;;4.11;100.00;94835.91;5037203;28;20196;-81
2022/11/29 00:32:04;;;;;;;13.77;8.47;;;;;;;4.14;100.00;94826.09;5043737;28;20240;-80
2022/11/29 00:34:30;;;;;;;12.13;7.77;;;;;;;4.14;100.00;94833.00;5038963;28;20593;-78
2022/11/29 00:36:57;;;;;;;9.83;6.90;;;;;;;4.03;100.00;94828.28;5027960;28;20511;-78
2022/11/29 00:39:24;;;;;;;9.10;6.53;;;;;;;3.97;100.00;94834.91;5030246;28;20206;-79
2022/11/29 00:41:53;;;;;;;11.07;6.13;;;;;;;3.98;100.00;94831.38;5033075;28;20688;-80
2022/11/29 00:44:20;;;;;;;8.43;5.40;;;;;;;3.99;100.00;94826.03;5039922;28;20210;-78
2022/11/29 00:46:47;;;;;;;9.00;5.10;;;;;;;3.89;100.00;94825.50;5039373;28;20206;-78
2022/11/29 00:49:13;;;;;;;6.17;4.40;;;;;;;3.76;100.00;94832.97;5031511;28;20554;-79
2022/11/29 00:51:40;;;;;;;6.00;4.07;;;;;;;3.75;100.00;94835.72;5035231;28;20199;-82
2022/11/29 00:54:07;;;;;;;5.20;4.00;;;;;;;3.68;100.00;94834.78;5039502;28;20211;-82
2022/11/29 00:56:34;;;;;;;5.67;4.07;;;;;;;3.67;100.00;94828.84;5035623;28;20214;-80
2022/11/29 00:59:02;;;;;;;5.37;4.00;;;;;;;3.70;100.00;94825.94;5031773;28;20702;-79
2022/11/29 01:01:29;;;;;;;6.30;3.90;;;;;;;3.56;100.00;94825.88;5030128;28;20207;-81
2022/11/29 01:03:56;;;;;;;5.93;3.90;;;;;;;3.62;100.00;94832.91;5036356;28;20708;-79
2022/11/29 01:06:23;;;;;;;4.57;3.63;;;;;;;3.70;100.00;94823.38;5034497;28;20195;-79
2022/11/29 01:08:50;;;;;;;4.73;3.50;;;;;;;3.77;100.00;94826.06;5033873;28;20195;-78
2022/11/29 01:11:19;;;;;;;5.20;3.80;;;;;;;3.77;100.00;94820.94;5033108;28;20317;-79
2022/11/29 01:13:46;;;;;;;5.53;3.60;;;;;;;3.70;100.00;94828.50;5033878;28;20203;-79
2022/11/29 01:16:15;;;;;;;4.20;3.40;;;;;;;3.70;100.00;94825.13;5034628;28;20233;-82
2022/11/29 01:18:43;;;;;;;4.60;3.30;;;;;;;3.66;100.00;94817.00;5036918;28;20814;-81
2022/11/29 01:21:12;;;;;;;4.77;3.33;;;;;;;3.75;100.00;94815.94;5035038;28;20699;-79
2022/11/29 01:23:39;;;;;;;5.07;3.70;;;;;;;3.72;100.00;94818.84;5035813;28;20191;-82
2022/11/29 01:26:09;;;;;;;5.27;4.00;;;;;;;3.63;100.00;94817.34;5031929;28;20236;-81
2022/11/29 01:28:37;;;;;;;5.20;4.03;;;;;;;3.57;100.00;94819.78;5030909;28;20198;-81
2022/11/29 01:31:07;;;;;;;7.03;4.10;;;;;;;3.55;100.00;94796.81;5030781;28;20203;-81
2022/11/29 01:33:36;;;;;;;4.33;3.50;;;;;;;3.65;100.00;94815.38;5029338;28;20250;-81
2022/11/29 01:36:03;;;;;;;5.30;3.97;;;;;;;3.58;100.00;94813.69;5030120;28;20230;-80
2022/11/29 01:38:31;;;;;;;5.37;4.20;;;;;;;3.58;100.00;94811.88;5030500;28;20590;-81
2022/11/29 01:41:00;;;;;;;5.27;4.07;;;;;;;3.50;100.00;94808.59;5030818;28;20210;-80
2022/11/29 01:43:28;;;;;;;5.93;4.50;;;;;;;3.56;100.00;94807.91;5032995;28;20191;-81
2022/11/29 01:45:55;;;;;;;5.63;3.90;;;;;;;3.45;100.00;94788.56;5029692;28;20194;-80
2022/11/29 01:48:26;;;;;;;5.73;3.93;;;;;;;3.41;100.00;94784.72;5033050;28;20205;-79
2022/11/29 01:50:57;;;;;;;6.07;3.90;;;;;;;3.53;100.00;94800.53;5039982;28;20668;-78
2022/11/29 01:53:24;;;;;;;5.93;3.83;;;;;;;3.54;100.00;94791.88;5035144;28;20199;-78
2022/11/29 01:55:54;;;;;;;5.30;3.90;;;;;;;3.55;100.00;94788.34;5036124;28;20215;-78
2022/11/29 01:58:21;;;;;;;5.97;3.70;;;;;;;3.59;100.00;94792.94;5025272;28;20206;-81
2022/11/29 02:00:48;;;;;;;4.87;3.67;;;;;;;3.41;100.00;94777.81;5032514;28;20209;-80
2022/11/29 02:03:17;;;;;;;6.00;4.07;;;;;;;3.40;100.00;94791.66;5033598;28;20195;-78
2022/11/29 02:05:47;;;;;;;5.10;3.97;;;;;;;3.31;100.00;94779.81;5032760;28;20252;-80
2022/11/29 02:08:19;;;;;;;6.17;4.40;;;;;;;3.37;100.00;94784.28;5035643;28;21075;-79
2022/11/29 02:11:05;;;;;;;5.73;4.03;;;;;;;3.13;100.00;94763.06;5031366;28;20356;-79
2022/11/29 02:13:42;;;;;;;5.50;3.60;;;;;;;3.26;100.00;94781.31;5031302;28;20268;-81
2022/11/29 02:16:18;;;;;;;7.37;3.77;;;;;;;3.17;100.00;94770.28;5032229;28;20207;-79
2022/11/29 02:18:55;;;;;;;6.67;4.13;;;;;;;3.36;100.00;94785.25;5037820;28;20190;-79
2022/11/29 02:21:32;;;;;;;5.77;4.37;;;;;;;3.33;100.00;94784.78;5034349;28;20231;-79
2022/11/29 02:24:39;;;;;;;6.07;4.17;;;;;;;3.41;100.00;94784.72;5031329;28;20220;-79
2022/11/29 02:27:46;;;;;;;6.17;4.20;;;;;;;3.49;100.00;94771.03;5034494;28;20220;-79
2022/11/29 02:30:38;;;;;;;8.17;4.40;;;;;;;3.50;100.00;94785.47;5030588;28;20206;-78
2022/11/29 02:33:33;;;;;;;6.40;4.17;;;;;;;3.39;100.00;94782.34;5029348;28;20231;-79
2022/11/29 02:36:24;;;;;;;6.33;4.40;;;;;;;3.44;100.00;94781.81;5033792;28;20211;-78
2022/11/29 02:39:20;;;;;;;5.47;4.10;;;;;;;3.42;100.00;94784.56;5032850;28;20764;-82
2022/11/29 02:42:02;;;;;;;5.83;3.93;;;;;;;3.49;100.00;94781.31;5027703;28;20518;-82
2022/11/29 02:44:44;;;;;;;6.23;3.90;;;;;;;3.42;100.00;94789.69;5035781;28;20582;-82
2022/11/29 02:47:24;;;;;;;6.93;3.57;;;;;;;3.39;100.00;94792.59;5032748;28;20206;-82
2022/11/29 02:50:20;;;;;;;4.93;3.67;;;;;;;3.26;100.00;94783.88;5029593;28;20285;-82
2022/11/29 02:52:57;;;;;;;4.97;3.70;;;;;;;3.32;100.00;94786.53;5029647;28;20210;-81
2022/11/29 02:55:33;;;;;;;5.07;3.60;;;;;;;3.36;100.00;94784.44;5033952;28;20241;-80
2022/11/29 02:58:08;;;;;;;5.43;3.80;;;;;;;3.34;100.00;94792.31;5035131;28;20202;-81
2022/11/29 03:00:41;;;;;;;4.57;3.40;;;;;;;3.36;100.00;94789.56;5034034;28;20198;-81
2022/11/29 03:03:15;;;;;;;5.67;3.73;;;;;;;3.33;100.00;94784.78;5033140;28;20202;-80
2022/11/29 03:05:52;;;;;;;6.10;3.93;;;;;;;3.44;100.00;94784.38;5033504;28;20663;-83
2022/11/29 03:08:31;;;;;;;7.83;3.93;;;;;;;3.40;100.00;94791.66;5035752;28;20190;-83
2022/11/29 03:11:06;;;;;;;4.77;3.47;;;;;;;3.51;100.00;94785.31;5031142;28;20202;-80
2022/11/29 03:13:48;;;;;;;5.67;3.87;;;;;;;3.51;100.00;94781.94;5036443;28;20248;-80
2022/11/29 03:16:28;;;;;;;5.10;3.50;;;;;;;3.52;100.00;94799.72;5039654;28;20697;-79
2022/11/29 03:19:04;;;;;;;5.10;3.97;;;;;;;3.60;100.00;94804.03;5042611;28;20197;-79
2022/11/29 03:21:41;;;;;;;5.40;3.80;;;;;;;3.55;100.00;94783.19;5042245;28;20257;-78
2022/11/29 03:24:15;;;;;;;5.27;3.73;;;;;;;3.59;100.00;94800.66;5037034;28;20222;-79
2022/11/29 03:26:46;;;;;;;4.63;3.50;;;;;;;3.50;100.00;94801.69;5039080;28;20195;-78
2022/11/29 03:29:22;;;;;;;5.47;3.70;;;;;;;3.55;100.00;94803.75;5032924;28;20210;-80
2022/11/29 03:31:59;;;;;;;5.00;3.67;;;;;;;3.48;100.00;94803.63;5034437;28;20205;-81
2022/11/29 03:34:36;;;;;;;6.00;3.70;;;;;;;3.49;100.00;94800.09;5029801;28;20234;-81
2022/11/29 03:37:13;;;;;;;5.30;3.67;;;;;;;3.50;100.00;94798.31;5029561;28;20233;-82
2022/11/29 03:39:49;;;;;;;4.93;3.60;;;;;;;3.50;100.00;94804.25;5034621;28;20193;-83
2022/11/29 03:42:25;;;;;;;5.60;4.10;;;;;;;3.48;100.00;94795.13;5032089;28;20229;-81
2022/11/29 03:44:58;;;;;;;5.30;4.00;;;;;;;3.51;100.00;94797.34;5033432;28;20210;-83
2022/11/29 03:47:31;;;;;;;6.00;4.23;;;;;;;3.37;100.00;94797.13;5032366;28;20198;-82
2022/11/29 03:50:03;;;;;;;5.77;3.93;;;;;;;3.43;100.00;94804.13;5031645;28;20282;-81
2022/11/29 03:52:35;;;;;;;5.97;4.10;;;;;;;3.52;100.00;94799.72;5031392;28;20207;-83
2022/11/29 03:55:18;;;;;;;6.37;4.30;;;;;;;3.57;100.00;94800.03;5032309;28;20203;-84
2022/11/29 03:57:51;;;;;;;5.53;4.03;;;;;;;3.63;100.00;94803.69;5033651;28;20214;-84
2022/11/29 04:00:19;;;;;;;6.00;4.27;;;;;;;3.66;100.00;94805.91;5032843;28;20294;-83
2022/11/29 04:03:28;;;;;;;5.83;4.40;;;;;;;3.69;100.00;94798.66;5031701;28;20215;-81
2022/11/29 04:06:18;;;;;;;5.57;4.13;;;;;;;3.77;100.00;94802.94;5032430;28;20260;-80
2022/11/29 04:09:17;;;;;;;5.37;4.10;;;;;;;3.87;100.00;94796.56;5031447;28;20211;-81
2022/11/29 04:12:21;;;;;;;5.33;3.93;;;;;;;3.83;100.00;94799.69;5030883;28;20216;-81
2022/11/29 04:15:23;;;;;;;5.73;3.87;;;;;;;3.83;100.00;94804.81;5033978;28;20240;-82
2022/11/29 04:18:24;;;;;;;7.30;4.50;;;;;;;3.94;100.00;94812.13;5028854;28;20218;-82
2022/11/29 04:21:12;;;;;;;5.73;4.23;;;;;;;3.95;100.00;94813.72;5033448;28;20198;-81
2022/11/29 04:24:13;;;;;;;7.20;4.20;;;;;;;3.97;100.00;94809.19;5033603;28;20207;-82
2022/11/29 04:27:07;;;;;;;7.40;4.37;;;;;;;4.04;100.00;94817.78;5023641;28;20268;-79
2022/11/29 04:29:51;;;;;;;7.70;4.70;;;;;;;3.98;100.00;94815.94;5030408;28;20190;-79
2022/11/29 04:32:49;;;;;;;6.77;4.53;;;;;;;3.91;100.00;94809.88;5038104;28;20190;-79
2022/11/29 04:35:34;;;;;;;6.00;4.30;;;;;;;3.91;100.00;94817.59;5033762;28;20827;-80
2022/11/29 04:38:22;;;;;;;6.90;4.47;;;;;;;3.89;100.00;94820.34;5038460;28;20293;-79
2022/11/29 04:41:21;;;;;;;6.30;4.60;;;;;;;3.94;100.00;94809.53;5037604;28;20236;-79
2022/11/29 04:44:03;;;;;;;7.33;4.57;;;;;;;4.00;100.00;94804.50;5028094;28;20203;-80
2022/11/29 04:46:56;;;;;;;5.87;4.27;;;;;;;4.09;100.00;94807.81;5036404;28;20771;-81
2022/11/29 04:49:42;;;;;;;8.53;4.80;;;;;;;4.07;100.00;94809.75;5035652;28;20201;-80
2022/11/29 04:52:24;;;;;;;7.10;4.77;;;;;;;4.01;100.00;94818.19;5029061;28;20210;-80
2022/11/29 04:55:00;;;;;;;6.07;4.40;;;;;;;3.99;100.00;94802.09;5032203;28;20202;-81
2022/11/29 04:57:35;;;;;;;6.00;4.20;;;;;;;3.91;100.00;94790.13;5034219;28;20681;-81
2022/11/29 05:00:08;;;;;;;6.80;5.00;;;;;;;3.93;100.00;94801.03;5035170;28;20236;-81
2022/11/29 05:02:45;;;;;;;8.70;4.97;;;;;;;3.88;100.00;94805.09;5029548;28;20201;-82
2022/11/29 05:05:24;;;;;;;7.80;5.03;;;;;;;3.69;100.00;94797.88;5033460;28;20204;-81
2022/11/29 05:08:08;;;;;;;6.63;5.10;;;;;;;3.76;100.00;94802.13;5029870;28;20227;-83
2022/11/29 05:10:43;;;;;;;7.93;5.23;;;;;;;3.80;100.00;94805.97;5032048;28;20207;-84
2022/11/29 05:13:18;;;;;;;8.33;5.47;;;;;;;3.92;100.00;94807.16;5031367;28;20230;-81
2022/11/29 05:16:02;;;;;;;9.20;5.47;;;;;;;3.75;100.00;94800.53;5030818;28;20198;-82
2022/11/29 05:18:50;;;;;;;7.00;5.00;;;;;;;3.67;100.00;94800.59;5028734;28;20246;-79
2022/11/29 05:21:25;;;;;;;10.67;5.40;;;;;;;3.81;100.00;94801.63;5036174;28;20289;-80
2022/11/29 05:24:02;;;;;;;11.00;5.80;;;;;;;3.86;100.00;94813.00;5029886;28;20206;-79
2022/11/29 05:26:33;;;;;;;8.63;5.97;;;;;;;3.71;100.00;94803.63;5032238;28;20199;-79
2022/11/29 05:29:05;;;;;;;13.77;5.97;;;;;;;3.73;100.00;94801.66;5034234;28;20190;-79
2022/11/29 05:31:55;;;;;;;7.43;5.50;;;;;;;3.57;100.00;94799.22;5032706;28;20210;-78
2022/11/29 05:34:33;;;;;;;9.57;5.33;;;;;;;3.72;100.00;94795.72;5035683;28;20233;-78
2022/11/29 05:37:08;;;;;;;11.13;5.80;;;;;;;3.71;100.00;94794.16;5032037;28;20202;-78
2022/11/29 05:39:49;;;;;;;12.43;6.33;;;;;;;3.76;100.00;94803.91;5033436;28;21209;-78
2022/11/29 05:42:38;;;;;;;10.57;6.20;;;;;;;3.77;100.00;94803.75;5036859;28;20199;-78
2022/11/29 05:45:12;;;;;;;12.93;6.40;;;;;;;3.91;100.00;94812.47;5036117;28;20186;-80
2022/11/29 05:47:49;;;;;;;9.10;6.27;;;;;;;3.98;100.00;94816.72;5031093;28;20684;-80
2022/11/29 05:50:23;;;;;;;10.10;6.23;;;;;;;3.96;100.00;94817.88;5029253;28;20233;-80
2022/11/29 05:52:55;;;;;;;11.10;6.60;;;;;;;3.92;100.00;94811.50;5029774;28;20222;-81
2022/11/29 05:55:34;;;;;;;11.47;6.50;;;;;;;3.96;100.00;94810.16;5029251;28;20694;-81
2022/11/29 05:58:09;;;;;;;13.03;6.50;;;;;;;4.00;100.00;94816.56;5023053;28;20218;-81
2022/11/29 06:00:44;;;;;;;10.70;6.03;;;;;;;4.03;100.00;94813.66;5035613;28;20231;-83
2022/11/29 06:03:21;;;;;;;13.40;6.27;;;;;;;3.99;100.00;94802.91;5030129;28;21638;-84
2022/11/29 06:05:59;;;;;;;9.93;7.13;;;;;;;4.11;100.00;94812.78;5030208;28;20225;-86
2022/11/29 06:08:37;;;;;;;12.13;6.23;;;;;;;4.09;100.00;94812.16;5029720;28;20662;-83
2022/11/29 06:11:13;;;;;;;11.90;6.93;;;;;;;3.91;100.00;94787.56;5029193;28;20222;-86
2022/11/29 06:13:52;;;;;;;9.80;6.63;;;;;;;4.10;100.00;94808.63;5030037;28;20221;-86
2022/11/29 06:16:46;;;;;;;11.13;6.50;;;;;;;4.14;100.00;94818.38;5034127;28;20215;-84
2022/11/29 06:19:58;;;;;;;11.67;7.43;;;;;;;4.25;100.00;94819.72;5028276;28;20289;-79
2022/11/29 06:22:54;;;;;;;12.53;6.33;;;;;;;4.28;100.00;94811.66;5024203;28;20592;-78
2022/11/29 06:25:41;;;;;;;10.57;6.00;;;;;;;4.29;100.00;94808.91;5027216;28;20205;-78
2022/11/29 06:28:41;;;;;;;11.27;5.80;;;;;;;4.24;100.00;94813.00;5033796;28;20223;-80
2022/11/29 06:31:15;;;;;;;14.03;5.73;;;;;;;4.26;100.00;94808.47;5034390;28;20191;-80
2022/11/29 06:33:48;;;;;;;10.43;5.40;;;;;;;4.30;100.00;94810.50;5029548;28;20804;-80
2022/11/29 06:36:21;;;;;;;10.57;5.57;;;;;;;4.31;100.00;94801.00;5031711;28;20207;-80
2022/11/29 06:38:48;;;;;;;13.03;6.50;;;;;;;4.34;100.00;94816.91;5035152;28;20260;-80
2022/11/29 06:41:19;;;;;;;10.77;6.00;;;;;;;4.31;100.00;94816.44;5034088;28;20210;-80
2022/11/29 06:43:47;;;;;;;11.47;6.07;;;;;;;4.34;100.00;94818.66;5034401;28;20205;-80
2022/11/29 06:46:32;;;;;;;13.17;6.53;;;;;;;4.40;100.00;94825.69;5027794;28;20202;-79
2022/11/29 06:49:07;;;;;;;13.23;7.47;;;;;;;4.48;100.00;94816.09;5032911;28;20255;-78
2022/11/29 06:51:48;;;;;;;11.00;6.67;;;;;;;4.53;100.00;94826.66;5032602;28;20214;-79
2022/11/29 06:54:26;;;;;;;13.10;6.13;;;;;;;4.35;100.00;94820.28;5026520;28;20207;-79
2022/11/29 06:57:02;;;;;;;8.43;5.60;;;;;;;4.36;100.00;94825.22;5032096;28;20202;-78
2022/11/29 06:59:51;;;;;;;13.90;5.97;;;;;;;4.54;100.00;94824.88;5030450;28;20206;-77
2022/11/29 07:02:34;;;;;;;8.63;5.53;;;;;;;4.39;100.00;94829.22;5031731;28;20195;-78
2022/11/29 07:05:14;;;;;;;12.03;5.70;;;;;;;4.37;100.00;94829.41;5034396;28;20210;-79
2022/11/29 07:07:43;;;;;;;11.87;5.23;;;;;;;4.38;100.00;94828.44;5027638;28;20713;-79
2022/11/29 07:10:15;;;;;;;11.07;5.53;;;;;;;4.38;100.00;94830.22;5029021;28;20206;-78
2022/11/29 07:12:43;;;;;;;8.83;5.43;;;;;;;4.40;100.00;94831.63;5029694;28;20203;-79
2022/11/29 07:15:14;;;;;;;8.03;5.37;;;;;;;4.27;100.00;94823.69;5027493;28;20195;-78
2022/11/29 07:17:53;;;;;;;8.63;5.20;;;;;;;4.27;100.00;94828.84;5029372;28;20213;-79
2022/11/29 07:20:30;;;;;;;13.93;5.73;;;;;;;4.31;100.00;94835.25;5029491;28;20566;-78
2022/11/29 07:23:06;;;;;;;10.77;5.57;;;;;;;4.42;100.00;94839.16;5027952;28;20551;-78
2022/11/29 07:25:43;;;;;;;8.67;5.23;;;;;;;4.40;100.00;94839.34;5032443;28;20211;-79
2022/11/29 07:28:24;;;;;;;10.50;5.30;;;;;;;4.37;100.00;94842.28;5032282;28;20194;-78
2022/11/29 07:30:59;;;;;;;7.27;5.10;;;;;;;4.46;100.00;94832.69;5030456;28;20576;-79
2022/11/29 07:33:34;;;;;;;8.80;5.90;;;;;;;4.46;100.00;94822.41;5033653;28;20260;-79
2022/11/29 07:36:10;;;;;;;10.07;5.70;;;;;;;4.52;99.68;94837.94;5037611;28;20200;-78
2022/11/29 07:38:51;;;;;;;9.73;6.17;;;;;;;4.53;100.00;94842.09;5034375;28;20219;-78
2022/11/29 07:41:25;;;;;;;10.40;5.90;;;;;;;4.65;100.00;94832.16;5030061;28;20199;-77
2022/11/29 07:44:00;;;;;;;10.73;6.30;;;;;;;4.80;99.62;94832.16;5030082;28;20865;-79
2022/11/29 07:46:27;;;;;;;10.33;6.80;;;;;;;4.68;99.86;94824.09;5033531;28;20192;-82
2022/11/29 07:48:54;;;;;;;12.17;7.17;;;;;;;4.68;100.00;94818.94;5036715;28;20235;-82
2022/11/29 07:51:21;;;;;;;16.27;6.30;;;;;;;4.75;100.00;94827.56;5044754;28;20201;-83
2022/11/29 07:53:50;;;;;;;11.77;6.43;;;;;;;4.77;100.00;94825.59;5036831;28;20201;-85
2022/11/29 07:56:16;;;;;;;14.10;7.33;;;;;;;4.93;99.88;94829.78;5034305;28;20222;-81
2022/11/29 07:58:43;;;;;;;11.63;6.40;;;;;;;4.90;99.18;94809.53;5032679;28;20304;-83
2022/11/29 08:01:10;;;;;;;9.93;6.70;;;;;;;5.02;98.86;94831.28;5036765;28;20198;-78
2022/11/29 08:03:37;;;;;;;10.50;6.47;;;;;;;5.09;99.74;94821.84;5039020;28;20760;-78
2022/11/29 08:06:04;;;;;;;10.03;6.03;;;;;;;5.22;98.63;94829.75;5037388;28;20196;-78
2022/11/29 08:08:31;;;;;;;11.63;6.13;;;;;;;5.07;98.75;94828.97;5033826;28;20851;-78
2022/11/29 08:11:00;;;;;;;8.30;5.30;;;;;;;5.08;98.97;94835.69;5040295;28;20191;-78
2022/11/29 08:13:27;;;;;;;6.77;4.37;;;;;;;5.21;97.60;94843.59;5035305;28;20215;-77
2022/11/29 08:15:54;;;;;;;5.33;3.80;;;;;;;5.22;97.58;94842.63;5032350;28;20197;-79
2022/11/29 08:18:21;;;;;;;6.20;4.40;;;;;;;5.31;96.12;94846.69;5030324;28;20962;-78
2022/11/29 08:20:48;;;;;;;7.17;4.40;;;;;;;5.24;96.74;94843.25;5037351;28;20200;-77
2022/11/29 08:23:15;;;;;;;6.20;3.73;;;;;;;5.30;97.45;94839.13;5036430;28;20698;-78
2022/11/29 08:25:42;;;;;;;5.77;4.20;;;;;;;5.38;96.76;94836.44;5034879;28;20211;-78
2022/11/29 08:28:10;;;;;;;6.67;4.70;;;;;;;5.28;97.32;94838.53;5035312;28;20204;-79
2022/11/29 08:30:37;;;;;;;8.57;5.67;;;;;;;5.18;98.47;94836.22;5038752;28;20816;-79
2022/11/29 08:33:04;;;;;;;9.50;5.23;;;;;;;5.31;98.55;94840.75;5037509;28;20228;-85
2022/11/29 08:35:31;;;;;;;8.87;5.00;;;;;;;5.40;97.80;94843.03;5037267;28;20215;-78
2022/11/29 08:37:58;;;;;;;9.07;4.50;;;;;;;5.49;97.66;94852.25;5036578;28;20560;-79
2022/11/29 08:40:25;;;;;;;9.97;5.07;;;;;;;5.56;97.22;94853.13;5037228;28;20192;-80
2022/11/29 08:42:52;;;;;;;11.23;5.30;;;;;;;5.60;97.28;94846.59;5038680;28;20671;-79
2022/11/29 08:45:20;;;;;;;9.07;5.00;;;;;;;5.65;95.36;94856.38;5036152;28;20193;-80
2022/11/29 08:47:47;;;;;;;8.77;4.40;;;;;;;5.66;95.59;94853.63;5038969;28;20230;-78
2022/11/29 08:50:15;;;;;;;6.37;4.40;;;;;;;4.89;97.06;94849.94;5034652;28;20662;-77
2022/11/29 08:55:33;;;;;;;15.03;5.80;;;;;;;3.96;100.00;94856.44;5039455;28;20205;-78
2022/11/29 08:58:05;;;;;;;8.10;5.83;;;;;;;4.05;100.00;94846.88;5035869;28;20211;-78
2022/11/29 09:00:34;;;;;;;10.43;6.37;;;;;;;4.29;100.00;94847.50;5036227;28;20201;-80
2022/11/29 09:05:43;;;;;;;14.17;7.27;;;;;;;4.41;100.00;94832.44;5031631;28;20212;-78
2022/11/29 09:08:10;;;;;;;12.37;7.47;;;;;;;4.47;100.00;94826.59;5040724;28;20204;-77
2022/11/29 09:10:38;;;;;;;17.00;7.60;;;;;;;4.62;100.00;94839.47;5036170;28;20206;-78
2022/11/29 09:13:05;;;;;;;16.03;6.73;;;;;;;4.71;100.00;94828.09;5040622;28;20206;-78
2022/11/29 09:15:34;;;;;;;17.03;7.63;;;;;;;4.80;100.00;94832.97;5039114;28;20201;-78
2022/11/29 09:18:00;;;;;;;14.70;7.90;;;;;;;4.55;100.00;94821.34;5034569;28;20275;-77
2022/11/29 09:20:28;;;;;;;11.60;7.57;;;;;;;4.43;100.00;94822.75;5046417;28;20202;-78
2022/11/29 09:22:55;;;;;;;12.20;7.80;;;;;;;4.65;100.00;94827.03;5035745;28;20216;-78
2022/11/29 09:25:22;;;;;;;14.80;8.20;;;;;;;4.61;100.00;94830.13;5033294;28;20727;-90
2022/11/29 09:27:49;;;;;;;12.47;7.80;;;;;;;4.28;100.00;94825.31;5032514;28;20928;-91
2022/11/29 09:30:17;;;;;;;11.07;6.77;;;;;;;4.07;100.00;94812.31;5035709;28;20740;-93
2022/11/29 09:32:48;;;;;;;14.23;8.00;;;;;;;4.18;100.00;94823.97;5042120;28;20246;-92
2022/11/29 09:35:15;;;;;;;13.80;7.77;;;;;;;4.31;100.00;94817.25;5035072;28;20257;-92
2022/11/29 09:37:43;;;;;;;15.90;7.93;;;;;;;4.47;100.00;94806.78;5033238;28;20613;-93
2022/11/29 09:40:18;;;;;;;15.83;7.60;;;;;;;4.65;100.00;94805.66;5036181;28;20210;-84
2022/11/29 09:42:55;;;;;;;14.30;7.87;;;;;;;4.51;100.00;94786.66;5033939;28;20206;-85
2022/11/29 09:45:30;;;;;;;13.80;7.40;;;;;;;4.45;100.00;94783.00;5031449;28;20198;-86
2022/11/29 09:48:29;;;;;;;14.37;8.00;;;;;;;4.68;100.00;94790.63;5030002;28;20288;-84
2022/11/29 09:51:06;;;;;;;10.00;6.90;;;;;;;4.81;100.00;94790.03;5028317;28;20225;-87
2022/11/29 09:53:46;;;;;;;14.23;7.17;;;;;;;4.94;100.00;94782.44;5031355;28;20198;-91
2022/11/29 09:56:22;;;;;;;12.10;7.07;;;;;;;4.84;100.00;94785.31;5038376;28;20199;-90
2022/11/29 09:58:56;;;;;;;10.33;7.17;;;;;;;4.78;100.00;94791.19;5031243;28;20263;-80
2022/11/29 10:01:26;;;;;;;11.87;7.23;;;;;;;4.77;100.00;94779.28;5038497;28;20222;-84
2022/11/29 10:03:59;;;;;;;14.13;6.97;;;;;;;4.87;100.00;94779.00;5030324;28;20210;-81
2022/11/29 10:06:31;;;;;;;10.13;6.23;;;;;;;4.93;100.00;94768.00;5032936;28;20202;-79
2022/11/29 10:09:03;;;;;;;10.57;5.97;;;;;;;5.06;100.00;94765.56;5029000;28;20278;-79
2022/11/29 10:11:35;;;;;;;9.90;6.60;;;;;;;4.85;100.00;94762.94;5037513;28;20202;-80
2022/11/29 10:14:10;;;;;;;11.70;7.10;;;;;;;4.67;100.00;94770.25;5033665;28;20201;-79
2022/11/29 10:16:44;;;;;;;11.50;7.63;;;;;;;4.60;100.00;94767.56;5037088;28;20190;-80
2022/11/29 10:19:21;;;;;;;16.23;7.73;;;;;;;4.67;100.00;94757.38;5032361;28;20210;-79
2022/11/29 10:21:59;;;;;;;11.97;7.37;;;;;;;4.87;100.00;94756.63;5033155;28;20199;-81
2022/11/29 10:24:28;;;;;;;12.97;6.93;;;;;;;4.90;100.00;94764.00;5032587;28;20351;-79
2022/11/29 10:26:55;;;;;;;14.27;7.37;;;;;;;4.84;100.00;94771.63;5033556;28;20218;-80
2022/11/29 10:29:23;;;;;;;10.70;7.10;;;;;;;4.91;100.00;94757.06;5035273;28;20199;-80
2022/11/29 10:31:53;;;;;;;10.13;6.53;;;;;;;5.04;100.00;94762.38;5036109;28;20206;-80
2022/11/29 10:34:23;;;;;;;11.93;7.10;;;;;;;5.25;100.00;94757.25;5037430;28;20222;-80
2022/11/29 10:36:53;;;;;;;14.10;5.97;;;;;;;5.43;100.00;94756.81;5030965;28;20221;-84
2022/11/29 10:39:25;;;;;;;9.23;5.83;;;;;;;5.59;100.00;94762.53;5031793;28;20219;-91
2022/11/29 10:41:56;;;;;;;8.33;5.97;;;;;;;5.71;100.00;94749.97;5027756;28;20258;-78
2022/11/29 10:44:24;;;;;;;10.47;5.83;;;;;;;5.66;100.00;94757.44;5039916;28;20193;-91
2022/11/29 10:46:52;;;;;;;13.27;6.90;;;;;;;5.62;100.00;94756.22;5029265;28;20725;-82
2022/11/29 10:49:27;;;;;;;11.13;6.67;;;;;;;5.74;100.00;94760.69;5042031;28;20219;-92
2022/11/29 10:51:54;;;;;;;12.00;6.13;;;;;;;5.87;100.00;94754.06;5036566;28;20228;-91
2022/11/29 10:54:31;;;;;;;8.60;5.53;;;;;;;5.87;100.00;94757.44;5033121;28;20196;-85
2022/11/29 10:57:00;;;;;;;7.07;5.27;;;;;;;5.91;100.00;94757.88;5029586;28;20263;-88
2022/11/29 10:59:29;;;;;;;9.87;5.80;;;;;;;6.07;100.00;94750.66;5034050;28;20240;-91
2022/11/29 11:01:57;;;;;;;9.93;5.90;;;;;;;6.06;100.00;94754.22;5033122;28;20213;-90
2022/11/29 11:04:29;;;;;;;11.47;6.00;;;;;;;6.00;100.00;94754.19;5034223;28;20209;-89
2022/11/29 11:06:59;;;;;;;7.27;5.00;;;;;;;5.84;100.00;94739.75;5041182;28;20190;-92
2022/11/29 11:09:31;;;;;;;8.57;5.20;;;;;;;5.84;100.00;94746.69;5035666;28;20229;-88
2022/11/29 11:12:00;;;;;;;9.47;5.27;;;;;;;5.92;100.00;94755.09;5038512;28;20217;-86
2022/11/29 11:14:29;;;;;;;10.63;5.40;;;;;;;6.06;100.00;94758.59;5017763;28;20225;-85
2022/11/29 11:16:55;;;;;;;8.20;5.50;;;;;;;6.15;100.00;94760.03;5038785;28;20205;-86
2022/11/29 11:19:31;;;;;;;10.73;5.70;;;;;;;6.08;100.00;94760.00;5034038;28;20221;-88
2022/11/29 11:22:00;;;;;;;9.50;5.00;;;;;;;6.00;100.00;94749.03;5037056;28;20233;-89
2022/11/29 11:24:29;;;;;;;12.83;5.27;;;;;;;6.03;100.00;94759.75;5039571;28;20995;-90
2022/11/29 11:27:00;;;;;;;8.03;4.50;;;;;;;6.07;100.00;94763.56;5036734;28;20212;-79
2022/11/29 11:29:35;;;;;;;9.07;4.77;;;;;;;6.00;100.00;94767.09;5032954;28;20202;-80
2022/11/29 11:32:07;;;;;;;9.63;4.63;;;;;;;6.00;100.00;94774.81;5031971;28;20202;-78
2022/11/29 11:34:37;;;;;;;6.60;4.47;;;;;;;5.93;100.00;94769.59;5033890;28;20247;-79
2022/11/29 11:37:20;;;;;;;8.10;3.60;;;;;;;5.92;100.00;94770.56;5038944;28;20208;-80
2022/11/29 11:39:49;;;;;;;6.87;4.10;;;;;;;5.64;100.00;94765.34;5036669;28;20208;-84
2022/11/29 11:42:37;;;;;;;10.67;4.60;;;;;;;5.42;100.00;94768.13;5034360;28;20220;-84
2022/11/29 11:45:21;;;;;;;7.83;4.80;;;;;;;5.55;100.00;94774.19;5039325;28;20200;-83
2022/11/29 11:47:50;;;;;;;8.90;4.70;;;;;;;5.67;100.00;94770.16;5031182;28;20703;-87
2022/11/29 11:50:28;;;;;;;8.63;5.00;;;;;;;5.77;100.00;94775.00;5038261;28;20235;-86
2022/11/29 11:52:57;;;;;;;8.83;5.10;;;;;;;5.52;100.00;94768.59;5032863;28;20204;-86
2022/11/29 11:55:32;;;;;;;8.67;5.23;;;;;;;5.15;100.00;94756.75;5035848;28;20530;-85
2022/11/29 11:58:05;;;;;;;7.23;5.00;;;;;;;5.31;100.00;94766.81;5031209;28;20607;-87
2022/11/29 12:00:45;;;;;;;10.03;5.00;;;;;;;5.45;100.00;94762.59;5037293;28;20193;-84
2022/11/29 12:03:31;;;;;;;9.00;5.27;;;;;;;5.60;100.00;94771.84;5034291;28;20209;-88
2022/11/29 12:06:03;;;;;;;7.67;5.13;;;;;;;5.64;100.00;94770.50;5029150;28;20205;-85
2022/11/29 12:08:31;;;;;;;9.80;5.80;;;;;;;5.34;100.00;94771.59;5037785;28;20247;-86
2022/11/29 12:11:03;;;;;;;8.40;5.67;;;;;;;5.16;100.00;94768.66;5032916;28;20196;-85
2022/11/29 12:13:35;;;;;;;9.70;5.57;;;;;;;5.27;100.00;94768.16;5031578;28;20205;-86